sensor_id;sensor_type;location;lat;lon;timestamp;temperature;humidity
16674;DHT22;8450;52.654;10.326;2022-12-29T08:49:48;7.90;99.90
16674;DHT22;8450;52.654;10.326;2022-12-29T08:52:14;7.80;99.90
16674;DHT22;8450;52.654;10.326;2022-12-29T08:54:39;7.80;99.90
16674;DHT22;8450;52.654;10.326;2022-12-29T08:57:05;7.80;99.90
16674;DHT22;8450;52.654;10.326;2022-12-29T08:59:37;7.70;99.90
16674;DHT22;8450;52.654;10.326;2022-12-29T09:02:02;7.70;99.90
16674;DHT22;8450;52.654;10.326;2022-12-29T09:04:28;7.70;99.90
16674;DHT22;8450;52.654;10.326;2022-12-29T09:09:26;7.60;99.90
16674;DHT22;8450;52.654;10.326;2022-12-29T09:11:51;7.60;99.90
16674;DHT22;8450;52.654;10.326;2022-12-29T09:14:17;7.60;99.90
16674;DHT22;8450;52.654;10.326;2022-12-29T09:16:42;7.60;99.90
16674;DHT22;8450;52.654;10.326;2022-12-29T09:19:27;7.60;99.90
16674;DHT22;8450;52.654;10.326;2022-12-29T09:21:52;7.50;99.90
16674;DHT22;8450;52.654;10.326;2022-12-29T09:24:18;7.50;99.90
16674;DHT22;8450;52.654;10.326;2022-12-29T09:26:43;7.50;99.90
16674;DHT22;8450;52.654;10.326;2022-12-29T09:29:09;7.50;99.90
16674;DHT22;8450;52.654;10.326;2022-12-29T09:31:34;7.40;99.90
16674;DHT22;8450;52.654;10.326;2022-12-29T09:34:00;7.40;99.90
16674;DHT22;8450;52.654;10.326;2022-12-29T09:36:25;7.40;99.90
16674;DHT22;8450;52.654;10.326;2022-12-29T09:38:53;7.40;99.90
16674;DHT22;8450;52.654;10.326;2022-12-29T09:41:46;7.40;99.90
16674;DHT22;8450;52.654;10.326;2022-12-29T09:44:26;7.40;99.90
16674;DHT22;8450;52.654;10.326;2022-12-29T09:46:55;7.40;99.90
16674;DHT22;8450;52.654;10.326;2022-12-29T09:49:43;7.40;99.90
16674;DHT22;8450;52.654;10.326;2022-12-29T09:52:23;7.50;99.90
16674;DHT22;8450;52.654;10.326;2022-12-29T09:55:01;7.60;99.90
16674;DHT22;8450;52.654;10.326;2022-12-29T09:57:35;7.60;99.90
16674;DHT22;8450;52.654;10.326;2022-12-29T10:00:14;7.70;99.90
16674;DHT22;8450;52.654;10.326;2022-12-29T10:02:45;7.80;99.90
16674;DHT22;8450;52.654;10.326;2022-12-29T10:05:50;7.80;99.90
16674;DHT22;8450;52.654;10.326;2022-12-29T10:11:20;8.20;99.90
16674;DHT22;8450;52.654;10.326;2022-12-29T10:16:30;8.40;99.90
16674;DHT22;8450;52.654;10.326;2022-12-29T10:24:29;8.60;99.90
16674;DHT22;8450;52.654;10.326;2022-12-29T10:26:57;8.60;99.90
16674;DHT22;8450;52.654;10.326;2022-12-29T10:29:27;8.60;99.90
16674;DHT22;8450;52.654;10.326;2022-12-29T10:32:06;8.70;99.90
16674;DHT22;8450;52.654;10.326;2022-12-29T10:34:45;8.70;99.90
16674;DHT22;8450;52.654;10.326;2022-12-29T10:37:42;8.70;99.90
16674;DHT22;8450;52.654;10.326;2022-12-29T10:40:25;8.70;99.90
16674;DHT22;8450;52.654;10.326;2022-12-29T10:42:54;8.80;99.90
16674;DHT22;8450;52.654;10.326;2022-12-29T10:45:23;8.80;99.90
16674;DHT22;8450;52.654;10.326;2022-12-29T10:48:09;8.80;99.90
16674;DHT22;8450;52.654;10.326;2022-12-29T10:50:38;8.90;99.90
16674;DHT22;8450;52.654;10.326;2022-12-29T10:53:16;9.00;99.90
16674;DHT22;8450;52.654;10.326;2022-12-29T10:55:44;9.10;99.90
16674;DHT22;8450;52.654;10.326;2022-12-29T10:58:13;9.30;99.90
16674;DHT22;8450;52.654;10.326;2022-12-29T11:00:39;9.40;99.90
16674;DHT22;8450;52.654;10.326;2022-12-29T11:06:22;9.70;99.90
16674;DHT22;8450;52.654;10.326;2022-12-29T11:09:04;9.70;99.90
16674;DHT22;8450;52.654;10.326;2022-12-29T11:11:35;9.80;99.90
16674;DHT22;8450;52.654;10.326;2022-12-29T11:14:27;9.90;99.90
16674;DHT22;8450;52.654;10.326;2022-12-29T11:16:57;9.90;99.90
16674;DHT22;8450;52.654;10.326;2022-12-29T11:19:26;10.00;99.90
16674;DHT22;8450;52.654;10.326;2022-12-29T11:21:52;10.00;99.90
16674;DHT22;8450;52.654;10.326;2022-12-29T11:24:27;10.00;99.90
16674;DHT22;8450;52.654;10.326;2022-12-29T11:26:54;10.00;99.90
16674;DHT22;8450;52.654;10.326;2022-12-29T11:29:38;10.00;99.90
16674;DHT22;8450;52.654;10.326;2022-12-29T11:32:27;10.00;99.90
16674;DHT22;8450;52.654;10.326;2022-12-29T11:34:55;9.90;99.90
16674;DHT22;8450;52.654;10.326;2022-12-29T11:37:33;9.90;99.90
16674;DHT22;8450;52.654;10.326;2022-12-29T11:40:18;9.80;99.90
16674;DHT22;8450;52.654;10.326;2022-12-29T11:42:55;9.80;99.90
16674;DHT22;8450;52.654;10.326;2022-12-29T11:45:27;9.70;99.90
16674;DHT22;8450;52.654;10.326;2022-12-29T11:48:18;9.60;99.90
16674;DHT22;8450;52.654;10.326;2022-12-29T11:50:52;9.60;99.90
16674;DHT22;8450;52.654;10.326;2022-12-29T11:53:21;9.50;99.90
16674;DHT22;8450;52.654;10.326;2022-12-29T11:56:14;9.50;99.90
16674;DHT22;8450;52.654;10.326;2022-12-29T11:58:41;9.40;99.90
16674;DHT22;8450;52.654;10.326;2022-12-29T12:01:28;9.30;99.90
16674;DHT22;8450;52.654;10.326;2022-12-29T12:04:00;9.30;99.90
16674;DHT22;8450;52.654;10.326;2022-12-29T12:06:27;9.20;99.90
16674;DHT22;8450;52.654;10.326;2022-12-29T12:08:57;9.20;99.90
16674;DHT22;8450;52.654;10.326;2022-12-29T12:11:37;9.10;99.90
16674;DHT22;8450;52.654;10.326;2022-12-29T12:14:32;9.10;99.90
16674;DHT22;8450;52.654;10.326;2022-12-29T12:17:16;9.00;99.90
16674;DHT22;8450;52.654;10.326;2022-12-29T12:22:46;9.00;99.90
16674;DHT22;8450;52.654;10.326;2022-12-29T12:25:21;9.00;99.90
16674;DHT22;8450;52.654;10.326;2022-12-29T12:28:15;9.00;99.90
16674;DHT22;8450;52.654;10.326;2022-12-29T12:30:40;9.00;99.90
16674;DHT22;8450;52.654;10.326;2022-12-29T12:33:25;9.00;99.90
16674;DHT22;8450;52.654;10.326;2022-12-29T12:39:34;9.00;99.90
16674;DHT22;8450;52.654;10.326;2022-12-29T12:45:27;9.00;99.90
16674;DHT22;8450;52.654;10.326;2022-12-29T12:50:35;9.00;99.90
16674;DHT22;8450;52.654;10.326;2022-12-29T12:56:09;9.00;99.90
16674;DHT22;8450;52.654;10.326;2022-12-29T13:10:22;8.90;99.90
16674;DHT22;8450;52.654;10.326;2022-12-29T13:16:14;8.90;99.90
16674;DHT22;8450;52.654;10.326;2022-12-29T13:19:01;8.90;99.90
